sensor_id;sensor_type;location;lat;lon;timestamp;pressure;altitude;pressure_sealevel;temperature
70831;BMP180;58451;51.550;7.208;2023-11-21T00:00:37;100257.60;;;7.40
70831;BMP180;58451;51.550;7.208;2023-11-21T00:02:11;100259.20;;;7.40
70831;BMP180;58451;51.550;7.208;2023-11-21T00:03:43;100262.80;;;7.40
70831;BMP180;58451;51.550;7.208;2023-11-21T00:05:16;100262.80;;;7.40
70831;BMP180;58451;51.550;7.208;2023-11-21T00:06:48;100267.60;;;7.40
70831;BMP180;58451;51.550;7.208;2023-11-21T00:08:19;100265.60;;;7.40
70831;BMP180;58451;51.550;7.208;2023-11-21T00:09:51;100262.20;;;7.46
70831;BMP180;58451;51.550;7.208;2023-11-21T00:11:23;100262.00;;;7.48
70831;BMP180;58451;51.550;7.208;2023-11-21T00:12:56;100261.20;;;7.50
70831;BMP180;58451;51.550;7.208;2023-11-21T00:14:28;100264.40;;;7.50
70831;BMP180;58451;51.550;7.208;2023-11-21T00:16:00;100261.60;;;7.50
70831;BMP180;58451;51.550;7.208;2023-11-21T00:17:33;100260.80;;;7.50
70831;BMP180;58451;51.550;7.208;2023-11-21T00:19:05;100266.80;;;7.50
70831;BMP180;58451;51.550;7.208;2023-11-21T00:20:36;100264.00;;;7.50
70831;BMP180;58451;51.550;7.208;2023-11-21T00:22:08;100265.00;;;7.50
70831;BMP180;58451;51.550;7.208;2023-11-21T00:23:40;100266.60;;;7.58
70831;BMP180;58451;51.550;7.208;2023-11-21T00:25:12;100269.60;;;7.60
70831;BMP180;58451;51.550;7.208;2023-11-21T00:26:47;100271.80;;;7.60
70831;BMP180;58451;51.550;7.208;2023-11-21T00:28:20;100273.60;;;7.60
70831;BMP180;58451;51.550;7.208;2023-11-21T00:29:52;100278.20;;;7.60
70831;BMP180;58451;51.550;7.208;2023-11-21T00:31:25;100277.60;;;7.60
70831;BMP180;58451;51.550;7.208;2023-11-21T00:32:57;100275.40;;;7.60
70831;BMP180;58451;51.550;7.208;2023-11-21T00:34:29;100280.60;;;7.60
70831;BMP180;58451;51.550;7.208;2023-11-21T00:36:01;100284.00;;;7.60
70831;BMP180;58451;51.550;7.208;2023-11-21T00:37:33;100283.60;;;7.60
70831;BMP180;58451;51.550;7.208;2023-11-21T00:39:05;100283.60;;;7.60
70831;BMP180;58451;51.550;7.208;2023-11-21T00:40:38;100278.80;;;7.60
70831;BMP180;58451;51.550;7.208;2023-11-21T00:42:11;100281.20;;;7.60
70831;BMP180;58451;51.550;7.208;2023-11-21T00:43:42;100280.20;;;7.60
70831;BMP180;58451;51.550;7.208;2023-11-21T00:45:16;100278.00;;;7.60
70831;BMP180;58451;51.550;7.208;2023-11-21T00:46:48;100282.60;;;7.64
70831;BMP180;58451;51.550;7.208;2023-11-21T00:48:19;100281.60;;;7.60
70831;BMP180;58451;51.550;7.208;2023-11-21T00:49:51;100281.40;;;7.66
70831;BMP180;58451;51.550;7.208;2023-11-21T00:51:24;100280.00;;;7.70
70831;BMP180;58451;51.550;7.208;2023-11-21T00:52:56;100276.80;;;7.70
70831;BMP180;58451;51.550;7.208;2023-11-21T00:54:28;100277.20;;;7.70
70831;BMP180;58451;51.550;7.208;2023-11-21T00:56:00;100280.40;;;7.70
70831;BMP180;58451;51.550;7.208;2023-11-21T00:57:31;100284.00;;;7.70
70831;BMP180;58451;51.550;7.208;2023-11-21T00:59:03;100288.00;;;7.70
70831;BMP180;58451;51.550;7.208;2023-11-21T01:00:36;100288.20;;;7.70
70831;BMP180;58451;51.550;7.208;2023-11-21T01:02:11;100285.40;;;7.70
70831;BMP180;58451;51.550;7.208;2023-11-21T01:03:43;100285.60;;;7.70
70831;BMP180;58451;51.550;7.208;2023-11-21T01:05:15;100282.00;;;7.70
70831;BMP180;58451;51.550;7.208;2023-11-21T01:06:47;100284.80;;;7.70
70831;BMP180;58451;51.550;7.208;2023-11-21T01:08:19;100286.00;;;7.70
70831;BMP180;58451;51.550;7.208;2023-11-21T01:09:51;100287.40;;;7.70
70831;BMP180;58451;51.550;7.208;2023-11-21T01:11:23;100287.60;;;7.70
70831;BMP180;58451;51.550;7.208;2023-11-21T01:12:55;100293.60;;;7.70
70831;BMP180;58451;51.550;7.208;2023-11-21T01:14:27;100293.80;;;7.70
70831;BMP180;58451;51.550;7.208;2023-11-21T01:15:59;100293.60;;;7.70
70831;BMP180;58451;51.550;7.208;2023-11-21T01:17:31;100294.00;;;7.70
70831;BMP180;58451;51.550;7.208;2023-11-21T01:19:03;100297.00;;;7.70
70831;BMP180;58451;51.550;7.208;2023-11-21T01:20:36;100297.40;;;7.70
70831;BMP180;58451;51.550;7.208;2023-11-21T01:22:07;100298.40;;;7.70
70831;BMP180;58451;51.550;7.208;2023-11-21T01:23:40;100300.60;;;7.70
70831;BMP180;58451;51.550;7.208;2023-11-21T01:25:12;100303.40;;;7.70
70831;BMP180;58451;51.550;7.208;2023-11-21T01:26:46;100304.00;;;7.70
70831;BMP180;58451;51.550;7.208;2023-11-21T01:28:19;100298.60;;;7.70
70831;BMP180;58451;51.550;7.208;2023-11-21T01:29:51;100303.80;;;7.70
70831;BMP180;58451;51.550;7.208;2023-11-21T01:31:26;100308.00;;;7.70
70831;BMP180;58451;51.550;7.208;2023-11-21T01:33:01;100308.00;;;7.70
70831;BMP180;58451;51.550;7.208;2023-11-21T01:34:34;100307.20;;;7.70
70831;BMP180;58451;51.550;7.208;2023-11-21T01:36:06;100307.80;;;7.70
70831;BMP180;58451;51.550;7.208;2023-11-21T01:37:38;100312.80;;;7.70
70831;BMP180;58451;51.550;7.208;2023-11-21T01:39:10;100314.40;;;7.70
70831;BMP180;58451;51.550;7.208;2023-11-21T01:40:46;100320.00;;;7.70
70831;BMP180;58451;51.550;7.208;2023-11-21T01:42:19;100312.60;;;7.70
70831;BMP180;58451;51.550;7.208;2023-11-21T01:43:51;100313.40;;;7.70
70831;BMP180;58451;51.550;7.208;2023-11-21T01:45:25;100312.20;;;7.70
70831;BMP180;58451;51.550;7.208;2023-11-21T01:46:58;100311.80;;;7.70
70831;BMP180;58451;51.550;7.208;2023-11-21T01:48:30;100310.00;;;7.70
70831;BMP180;58451;51.550;7.208;2023-11-21T01:50:03;100309.20;;;7.70
70831;BMP180;58451;51.550;7.208;2023-11-21T01:51:38;100307.00;;;7.70
70831;BMP180;58451;51.550;7.208;2023-11-21T01:53:12;100312.80;;;7.70
70831;BMP180;58451;51.550;7.208;2023-11-21T01:54:44;100311.00;;;7.70
70831;BMP180;58451;51.550;7.208;2023-11-21T01:56:16;100306.60;;;7.70
70831;BMP180;58451;51.550;7.208;2023-11-21T01:57:48;100309.00;;;7.70
70831;BMP180;58451;51.550;7.208;2023-11-21T01:59:21;100308.80;;;7.70
70831;BMP180;58451;51.550;7.208;2023-11-21T02:00:54;100309.80;;;7.62
70831;BMP180;58451;51.550;7.208;2023-11-21T02:02:27;100309.80;;;7.60
70831;BMP180;58451;51.550;7.208;2023-11-21T02:03:59;100314.20;;;7.60
70831;BMP180;58451;51.550;7.208;2023-11-21T02:05:32;100317.60;;;7.60
70831;BMP180;58451;51.550;7.208;2023-11-21T02:07:05;100317.40;;;7.60
70831;BMP180;58451;51.550;7.208;2023-11-21T02:08:39;100320.60;;;7.60
70831;BMP180;58451;51.550;7.208;2023-11-21T02:10:15;100322.00;;;7.60
70831;BMP180;58451;51.550;7.208;2023-11-21T02:11:48;100322.20;;;7.60
70831;BMP180;58451;51.550;7.208;2023-11-21T02:13:21;100324.60;;;7.60
70831;BMP180;58451;51.550;7.208;2023-11-21T02:14:54;100325.20;;;7.60
70831;BMP180;58451;51.550;7.208;2023-11-21T02:16:27;100330.00;;;7.56
70831;BMP180;58451;51.550;7.208;2023-11-21T02:18:01;100334.20;;;7.52
70831;BMP180;58451;51.550;7.208;2023-11-21T02:19:35;100337.40;;;7.50
70831;BMP180;58451;51.550;7.208;2023-11-21T02:21:07;100335.20;;;7.50
70831;BMP180;58451;51.550;7.208;2023-11-21T02:22:41;100336.80;;;7.50
70831;BMP180;58451;51.550;7.208;2023-11-21T02:24:13;100342.20;;;7.50
70831;BMP180;58451;51.550;7.208;2023-11-21T02:25:45;100339.20;;;7.50
70831;BMP180;58451;51.550;7.208;2023-11-21T02:27:20;100342.20;;;7.50
70831;BMP180;58451;51.550;7.208;2023-11-21T02:28:54;100342.80;;;7.50
70831;BMP180;58451;51.550;7.208;2023-11-21T02:30:27;100345.60;;;7.50
70831;BMP180;58451;51.550;7.208;2023-11-21T02:32:00;100351.80;;;7.50
70831;BMP180;58451;51.550;7.208;2023-11-21T02:33:32;100351.60;;;7.50
70831;BMP180;58451;51.550;7.208;2023-11-21T02:35:07;100351.20;;;7.50
70831;BMP180;58451;51.550;7.208;2023-11-21T02:36:41;100350.20;;;7.48
70831;BMP180;58451;51.550;7.208;2023-11-21T02:38:14;100354.80;;;7.40
70831;BMP180;58451;51.550;7.208;2023-11-21T02:39:47;100352.20;;;7.40
70831;BMP180;58451;51.550;7.208;2023-11-21T02:41:19;100352.40;;;7.46
70831;BMP180;58451;51.550;7.208;2023-11-21T02:42:51;100356.00;;;7.42
70831;BMP180;58451;51.550;7.208;2023-11-21T02:44:23;100353.40;;;7.40
70831;BMP180;58451;51.550;7.208;2023-11-21T02:45:55;100354.40;;;7.40
70831;BMP180;58451;51.550;7.208;2023-11-21T02:47:27;100358.00;;;7.40
70831;BMP180;58451;51.550;7.208;2023-11-21T02:49:03;100360.40;;;7.40
70831;BMP180;58451;51.550;7.208;2023-11-21T02:50:35;100359.60;;;7.46
70831;BMP180;58451;51.550;7.208;2023-11-21T02:52:07;100358.80;;;7.50
70831;BMP180;58451;51.550;7.208;2023-11-21T02:53:39;100360.20;;;7.44
70831;BMP180;58451;51.550;7.208;2023-11-21T02:55:11;100359.00;;;7.50
70831;BMP180;58451;51.550;7.208;2023-11-21T02:56:43;100359.20;;;7.50
70831;BMP180;58451;51.550;7.208;2023-11-21T02:58:15;100363.20;;;7.48
70831;BMP180;58451;51.550;7.208;2023-11-21T02:59:47;100359.80;;;7.46
70831;BMP180;58451;51.550;7.208;2023-11-21T03:01:19;100362.60;;;7.42
70831;BMP180;58451;51.550;7.208;2023-11-21T03:02:53;100359.40;;;7.44
70831;BMP180;58451;51.550;7.208;2023-11-21T03:04:24;100355.80;;;7.48
70831;BMP180;58451;51.550;7.208;2023-11-21T03:05:57;100361.60;;;7.50
70831;BMP180;58451;51.550;7.208;2023-11-21T03:07:29;100364.80;;;7.50
70831;BMP180;58451;51.550;7.208;2023-11-21T03:09:02;100366.20;;;7.50
70831;BMP180;58451;51.550;7.208;2023-11-21T03:10:34;100366.20;;;7.50
70831;BMP180;58451;51.550;7.208;2023-11-21T03:12:06;100369.20;;;7.50
70831;BMP180;58451;51.550;7.208;2023-11-21T03:13:42;100370.20;;;7.50
70831;BMP180;58451;51.550;7.208;2023-11-21T03:15:14;100368.40;;;7.50
70831;BMP180;58451;51.550;7.208;2023-11-21T03:16:48;100369.00;;;7.50
70831;BMP180;58451;51.550;7.208;2023-11-21T03:18:21;100370.00;;;7.50
70831;BMP180;58451;51.550;7.208;2023-11-21T03:19:56;100365.20;;;7.50
70831;BMP180;58451;51.550;7.208;2023-11-21T03:21:28;100367.80;;;7.50
70831;BMP180;58451;51.550;7.208;2023-11-21T03:23:01;100369.60;;;7.52
70831;BMP180;58451;51.550;7.208;2023-11-21T03:24:32;100368.40;;;7.58
70831;BMP180;58451;51.550;7.208;2023-11-21T03:26:04;100371.40;;;7.60
70831;BMP180;58451;51.550;7.208;2023-11-21T03:27:37;100371.20;;;7.60
70831;BMP180;58451;51.550;7.208;2023-11-21T03:29:10;100373.80;;;7.60
70831;BMP180;58451;51.550;7.208;2023-11-21T03:30:42;100374.40;;;7.60
70831;BMP180;58451;51.550;7.208;2023-11-21T03:32:14;100377.40;;;7.60
70831;BMP180;58451;51.550;7.208;2023-11-21T03:33:46;100380.80;;;7.60
70831;BMP180;58451;51.550;7.208;2023-11-21T03:35:19;100385.40;;;7.60
70831;BMP180;58451;51.550;7.208;2023-11-21T03:36:53;100382.20;;;7.60
70831;BMP180;58451;51.550;7.208;2023-11-21T03:38:24;100385.00;;;7.60
70831;BMP180;58451;51.550;7.208;2023-11-21T03:39:56;100387.00;;;7.60
70831;BMP180;58451;51.550;7.208;2023-11-21T03:41:29;100389.20;;;7.60
70831;BMP180;58451;51.550;7.208;2023-11-21T03:43:00;100389.80;;;7.60
70831;BMP180;58451;51.550;7.208;2023-11-21T03:44:32;100395.20;;;7.60
70831;BMP180;58451;51.550;7.208;2023-11-21T03:46:04;100398.60;;;7.60
70831;BMP180;58451;51.550;7.208;2023-11-21T03:47:36;100399.00;;;7.60
70831;BMP180;58451;51.550;7.208;2023-11-21T03:49:08;100406.00;;;7.60
70831;BMP180;58451;51.550;7.208;2023-11-21T03:50:40;100406.60;;;7.60
70831;BMP180;58451;51.550;7.208;2023-11-21T03:52:12;100410.20;;;7.60
70831;BMP180;58451;51.550;7.208;2023-11-21T03:53:44;100413.60;;;7.60
70831;BMP180;58451;51.550;7.208;2023-11-21T03:55:16;100412.60;;;7.60
70831;BMP180;58451;51.550;7.208;2023-11-21T03:56:49;100412.80;;;7.60
70831;BMP180;58451;51.550;7.208;2023-11-21T03:58:20;100416.40;;;7.60
70831;BMP180;58451;51.550;7.208;2023-11-21T03:59:52;100417.00;;;7.60
70831;BMP180;58451;51.550;7.208;2023-11-21T04:01:24;100419.60;;;7.68
70831;BMP180;58451;51.550;7.208;2023-11-21T04:02:56;100421.60;;;7.68
70831;BMP180;58451;51.550;7.208;2023-11-21T04:04:28;100420.40;;;7.70
70831;BMP180;58451;51.550;7.208;2023-11-21T04:06:00;100421.60;;;7.70
70831;BMP180;58451;51.550;7.208;2023-11-21T04:07:32;100423.60;;;7.70
70831;BMP180;58451;51.550;7.208;2023-11-21T04:09:04;100422.60;;;7.70
70831;BMP180;58451;51.550;7.208;2023-11-21T04:10:36;100420.80;;;7.70
70831;BMP180;58451;51.550;7.208;2023-11-21T04:12:08;100422.40;;;7.70
70831;BMP180;58451;51.550;7.208;2023-11-21T04:13:43;100425.60;;;7.70
70831;BMP180;58451;51.550;7.208;2023-11-21T04:15:15;100426.80;;;7.70
70831;BMP180;58451;51.550;7.208;2023-11-21T04:16:47;100428.00;;;7.70
70831;BMP180;58451;51.550;7.208;2023-11-21T04:18:20;100423.00;;;7.70
70831;BMP180;58451;51.550;7.208;2023-11-21T04:19:51;100423.80;;;7.68
70831;BMP180;58451;51.550;7.208;2023-11-21T04:21:23;100425.80;;;7.62
70831;BMP180;58451;51.550;7.208;2023-11-21T04:22:55;100429.60;;;7.62
70831;BMP180;58451;51.550;7.208;2023-11-21T04:24:27;100430.60;;;7.60
70831;BMP180;58451;51.550;7.208;2023-11-21T04:26:00;100434.20;;;7.60
70831;BMP180;58451;51.550;7.208;2023-11-21T04:27:34;100436.60;;;7.60
70831;BMP180;58451;51.550;7.208;2023-11-21T04:29:06;100434.60;;;7.60
70831;BMP180;58451;51.550;7.208;2023-11-21T04:30:38;100436.80;;;7.60
70831;BMP180;58451;51.550;7.208;2023-11-21T04:32:11;100436.40;;;7.60
70831;BMP180;58451;51.550;7.208;2023-11-21T04:33:44;100435.80;;;7.54
70831;BMP180;58451;51.550;7.208;2023-11-21T04:35:16;100431.40;;;7.50
70831;BMP180;58451;51.550;7.208;2023-11-21T04:36:49;100435.00;;;7.50
70831;BMP180;58451;51.550;7.208;2023-11-21T04:38:21;100437.40;;;7.50
70831;BMP180;58451;51.550;7.208;2023-11-21T04:39:54;100436.00;;;7.50
70831;BMP180;58451;51.550;7.208;2023-11-21T04:41:25;100441.80;;;7.50
70831;BMP180;58451;51.550;7.208;2023-11-21T04:42:57;100446.80;;;7.50
70831;BMP180;58451;51.550;7.208;2023-11-21T04:44:29;100447.80;;;7.52
70831;BMP180;58451;51.550;7.208;2023-11-21T04:46:01;100444.00;;;7.52
70831;BMP180;58451;51.550;7.208;2023-11-21T04:47:33;100444.20;;;7.58
70831;BMP180;58451;51.550;7.208;2023-11-21T04:49:05;100443.20;;;7.56
70831;BMP180;58451;51.550;7.208;2023-11-21T04:50:37;100441.00;;;7.60
70831;BMP180;58451;51.550;7.208;2023-11-21T04:52:10;100441.40;;;7.60
70831;BMP180;58451;51.550;7.208;2023-11-21T04:53:42;100441.40;;;7.60
70831;BMP180;58451;51.550;7.208;2023-11-21T04:55:14;100442.40;;;7.60
70831;BMP180;58451;51.550;7.208;2023-11-21T04:56:47;100446.00;;;7.60
70831;BMP180;58451;51.550;7.208;2023-11-21T04:58:18;100447.20;;;7.60
70831;BMP180;58451;51.550;7.208;2023-11-21T04:59:52;100450.00;;;7.60
70831;BMP180;58451;51.550;7.208;2023-11-21T05:01:24;100450.20;;;7.60
70831;BMP180;58451;51.550;7.208;2023-11-21T05:02:56;100446.00;;;7.60
70831;BMP180;58451;51.550;7.208;2023-11-21T05:04:28;100453.60;;;7.60
70831;BMP180;58451;51.550;7.208;2023-11-21T05:06:00;100452.80;;;7.60
70831;BMP180;58451;51.550;7.208;2023-11-21T05:07:32;100453.40;;;7.60
70831;BMP180;58451;51.550;7.208;2023-11-21T05:09:04;100454.00;;;7.62
70831;BMP180;58451;51.550;7.208;2023-11-21T05:10:36;100451.40;;;7.70
70831;BMP180;58451;51.550;7.208;2023-11-21T05:12:10;100458.60;;;7.70
70831;BMP180;58451;51.550;7.208;2023-11-21T05:13:42;100457.00;;;7.70
70831;BMP180;58451;51.550;7.208;2023-11-21T05:15:15;100461.60;;;7.70
70831;BMP180;58451;51.550;7.208;2023-11-21T05:16:48;100465.20;;;7.70
70831;BMP180;58451;51.550;7.208;2023-11-21T05:18:23;100465.20;;;7.70
70831;BMP180;58451;51.550;7.208;2023-11-21T05:19:58;100470.60;;;7.70
70831;BMP180;58451;51.550;7.208;2023-11-21T05:21:30;100468.00;;;7.70
70831;BMP180;58451;51.550;7.208;2023-11-21T05:23:05;100471.00;;;7.72
70831;BMP180;58451;51.550;7.208;2023-11-21T05:24:36;100464.20;;;7.70
70831;BMP180;58451;51.550;7.208;2023-11-21T05:26:10;100468.40;;;7.72
70831;BMP180;58451;51.550;7.208;2023-11-21T05:27:42;100469.60;;;7.74
70831;BMP180;58451;51.550;7.208;2023-11-21T05:29:14;100476.60;;;7.80
70831;BMP180;58451;51.550;7.208;2023-11-21T05:30:46;100479.40;;;7.80
70831;BMP180;58451;51.550;7.208;2023-11-21T05:32:18;100488.00;;;7.80
70831;BMP180;58451;51.550;7.208;2023-11-21T05:33:50;100487.20;;;7.80
70831;BMP180;58451;51.550;7.208;2023-11-21T05:35:22;100491.00;;;7.80
70831;BMP180;58451;51.550;7.208;2023-11-21T05:36:54;100490.20;;;7.80
70831;BMP180;58451;51.550;7.208;2023-11-21T05:38:25;100491.00;;;7.80
70831;BMP180;58451;51.550;7.208;2023-11-21T05:39:57;100495.20;;;7.80
70831;BMP180;58451;51.550;7.208;2023-11-21T05:41:29;100495.80;;;7.80
70831;BMP180;58451;51.550;7.208;2023-11-21T05:43:02;100497.40;;;7.80
70831;BMP180;58451;51.550;7.208;2023-11-21T05:44:33;100501.80;;;7.80
70831;BMP180;58451;51.550;7.208;2023-11-21T05:46:06;100501.00;;;7.80
70831;BMP180;58451;51.550;7.208;2023-11-21T05:47:43;100504.20;;;7.80
70831;BMP180;58451;51.550;7.208;2023-11-21T05:49:18;100505.20;;;7.80
70831;BMP180;58451;51.550;7.208;2023-11-21T05:50:53;100507.20;;;7.80
70831;BMP180;58451;51.550;7.208;2023-11-21T05:52:25;100507.20;;;7.80
70831;BMP180;58451;51.550;7.208;2023-11-21T05:53:57;100511.60;;;7.80
70831;BMP180;58451;51.550;7.208;2023-11-21T05:55:29;100516.20;;;7.78
70831;BMP180;58451;51.550;7.208;2023-11-21T05:57:01;100517.00;;;7.74
70831;BMP180;58451;51.550;7.208;2023-11-21T05:58:33;100520.40;;;7.72
70831;BMP180;58451;51.550;7.208;2023-11-21T06:00:14;100522.20;;;7.70
70831;BMP180;58451;51.550;7.208;2023-11-21T06:01:53;100531.60;;;7.70
70831;BMP180;58451;51.550;7.208;2023-11-21T06:03:25;100534.00;;;7.70
70831;BMP180;58451;51.550;7.208;2023-11-21T06:04:57;100532.40;;;7.70
70831;BMP180;58451;51.550;7.208;2023-11-21T06:06:29;100533.80;;;7.70
70831;BMP180;58451;51.550;7.208;2023-11-21T06:08:01;100536.20;;;7.70
70831;BMP180;58451;51.550;7.208;2023-11-21T06:09:33;100537.00;;;7.70
70831;BMP180;58451;51.550;7.208;2023-11-21T06:11:06;100540.40;;;7.70
70831;BMP180;58451;51.550;7.208;2023-11-21T06:12:38;100538.20;;;7.70
70831;BMP180;58451;51.550;7.208;2023-11-21T06:14:12;100535.20;;;7.70
70831;BMP180;58451;51.550;7.208;2023-11-21T06:15:43;100535.60;;;7.70
70831;BMP180;58451;51.550;7.208;2023-11-21T06:17:15;100534.80;;;7.70
70831;BMP180;58451;51.550;7.208;2023-11-21T06:18:48;100535.40;;;7.68
70831;BMP180;58451;51.550;7.208;2023-11-21T06:20:20;100536.20;;;7.68
70831;BMP180;58451;51.550;7.208;2023-11-21T06:21:52;100541.60;;;7.66
70831;BMP180;58451;51.550;7.208;2023-11-21T06:23:25;100549.80;;;7.60
70831;BMP180;58451;51.550;7.208;2023-11-21T06:24:56;100555.60;;;7.60
70831;BMP180;58451;51.550;7.208;2023-11-21T06:26:28;100556.40;;;7.60
70831;BMP180;58451;51.550;7.208;2023-11-21T06:28:00;100561.00;;;7.60
70831;BMP180;58451;51.550;7.208;2023-11-21T06:29:32;100569.40;;;7.60
70831;BMP180;58451;51.550;7.208;2023-11-21T06:31:04;100569.00;;;7.60
70831;BMP180;58451;51.550;7.208;2023-11-21T06:32:38;100570.60;;;7.60
70831;BMP180;58451;51.550;7.208;2023-11-21T06:34:11;100569.60;;;7.60
70831;BMP180;58451;51.550;7.208;2023-11-21T06:35:44;100570.40;;;7.60
70831;BMP180;58451;51.550;7.208;2023-11-21T06:37:16;100571.60;;;7.62
70831;BMP180;58451;51.550;7.208;2023-11-21T06:38:48;100570.00;;;7.64
70831;BMP180;58451;51.550;7.208;2023-11-21T06:40:20;100576.00;;;7.62
70831;BMP180;58451;51.550;7.208;2023-11-21T06:41:53;100578.40;;;7.62
70831;BMP180;58451;51.550;7.208;2023-11-21T06:43:26;100577.20;;;7.62
70831;BMP180;58451;51.550;7.208;2023-11-21T06:45:03;100580.00;;;7.60
70831;BMP180;58451;51.550;7.208;2023-11-21T06:46:38;100584.40;;;7.64
70831;BMP180;58451;51.550;7.208;2023-11-21T06:48:14;100590.20;;;7.70
70831;BMP180;58451;51.550;7.208;2023-11-21T06:49:46;100588.80;;;7.70
70831;BMP180;58451;51.550;7.208;2023-11-21T06:51:21;100589.80;;;7.70
70831;BMP180;58451;51.550;7.208;2023-11-21T06:52:53;100593.40;;;7.70
70831;BMP180;58451;51.550;7.208;2023-11-21T06:54:26;100596.80;;;7.70
70831;BMP180;58451;51.550;7.208;2023-11-21T06:55:58;100597.00;;;7.70
70831;BMP180;58451;51.550;7.208;2023-11-21T06:57:31;100593.80;;;7.70
70831;BMP180;58451;51.550;7.208;2023-11-21T06:59:06;100597.40;;;7.70
70831;BMP180;58451;51.550;7.208;2023-11-21T07:00:38;100600.40;;;7.70
70831;BMP180;58451;51.550;7.208;2023-11-21T07:02:10;100603.20;;;7.70
70831;BMP180;58451;51.550;7.208;2023-11-21T07:03:42;100606.40;;;7.80
70831;BMP180;58451;51.550;7.208;2023-11-21T07:05:14;100610.60;;;7.80
70831;BMP180;58451;51.550;7.208;2023-11-21T07:06:47;100610.60;;;7.80
70831;BMP180;58451;51.550;7.208;2023-11-21T07:08:18;100612.40;;;7.80
70831;BMP180;58451;51.550;7.208;2023-11-21T07:09:50;100614.80;;;7.80
70831;BMP180;58451;51.550;7.208;2023-11-21T07:11:23;100612.60;;;7.80
70831;BMP180;58451;51.550;7.208;2023-11-21T07:12:55;100616.40;;;7.80
70831;BMP180;58451;51.550;7.208;2023-11-21T07:14:28;100619.20;;;7.80
70831;BMP180;58451;51.550;7.208;2023-11-21T07:16:00;100619.60;;;7.86
70831;BMP180;58451;51.550;7.208;2023-11-21T07:17:33;100624.40;;;7.90
70831;BMP180;58451;51.550;7.208;2023-11-21T07:19:09;100621.80;;;7.90
70831;BMP180;58451;51.550;7.208;2023-11-21T07:20:41;100622.40;;;7.90
70831;BMP180;58451;51.550;7.208;2023-11-21T07:22:13;100625.60;;;7.90
70831;BMP180;58451;51.550;7.208;2023-11-21T07:23:45;100630.20;;;7.90
70831;BMP180;58451;51.550;7.208;2023-11-21T07:25:17;100632.20;;;7.90
70831;BMP180;58451;51.550;7.208;2023-11-21T07:26:49;100629.80;;;7.90
70831;BMP180;58451;51.550;7.208;2023-11-21T07:28:21;100631.00;;;7.90
70831;BMP180;58451;51.550;7.208;2023-11-21T07:29:53;100632.40;;;7.90
70831;BMP180;58451;51.550;7.208;2023-11-21T07:31:25;100628.80;;;7.90
70831;BMP180;58451;51.550;7.208;2023-11-21T07:32:57;100631.80;;;7.90
70831;BMP180;58451;51.550;7.208;2023-11-21T07:34:29;100636.40;;;7.98
70831;BMP180;58451;51.550;7.208;2023-11-21T07:36:00;100637.00;;;7.98
70831;BMP180;58451;51.550;7.208;2023-11-21T07:37:32;100638.80;;;8.00
70831;BMP180;58451;51.550;7.208;2023-11-21T07:39:04;100640.40;;;8.00
70831;BMP180;58451;51.550;7.208;2023-11-21T07:40:38;100637.00;;;8.00
70831;BMP180;58451;51.550;7.208;2023-11-21T07:42:10;100642.60;;;8.00
70831;BMP180;58451;51.550;7.208;2023-11-21T07:43:44;100640.80;;;8.06
70831;BMP180;58451;51.550;7.208;2023-11-21T07:45:16;100642.20;;;8.10
70831;BMP180;58451;51.550;7.208;2023-11-21T07:46:51;100646.60;;;8.10
70831;BMP180;58451;51.550;7.208;2023-11-21T07:48:23;100645.80;;;8.12
70831;BMP180;58451;51.550;7.208;2023-11-21T07:49:55;100649.60;;;8.20
70831;BMP180;58451;51.550;7.208;2023-11-21T07:51:30;100651.60;;;8.20
70831;BMP180;58451;51.550;7.208;2023-11-21T07:53:02;100652.20;;;8.20
70831;BMP180;58451;51.550;7.208;2023-11-21T07:54:37;100650.60;;;8.20
70831;BMP180;58451;51.550;7.208;2023-11-21T07:56:10;100648.60;;;8.30
70831;BMP180;58451;51.550;7.208;2023-11-21T07:57:42;100648.40;;;8.30
70831;BMP180;58451;51.550;7.208;2023-11-21T07:59:13;100648.80;;;8.30
70831;BMP180;58451;51.550;7.208;2023-11-21T08:00:45;100650.20;;;8.40
70831;BMP180;58451;51.550;7.208;2023-11-21T08:02:20;100654.00;;;8.40
70831;BMP180;58451;51.550;7.208;2023-11-21T08:03:52;100654.60;;;8.40
70831;BMP180;58451;51.550;7.208;2023-11-21T08:05:25;100657.20;;;8.34
70831;BMP180;58451;51.550;7.208;2023-11-21T08:07:07;100662.40;;;8.40
70831;BMP180;58451;51.550;7.208;2023-11-21T08:08:39;100667.60;;;8.40
70831;BMP180;58451;51.550;7.208;2023-11-21T08:10:11;100673.40;;;8.40
70831;BMP180;58451;51.550;7.208;2023-11-21T08:11:43;100681.00;;;8.40
70831;BMP180;58451;51.550;7.208;2023-11-21T08:13:15;100685.20;;;8.48
70831;BMP180;58451;51.550;7.208;2023-11-21T08:14:48;100691.40;;;8.50
70831;BMP180;58451;51.550;7.208;2023-11-21T08:16:20;100692.60;;;8.50
70831;BMP180;58451;51.550;7.208;2023-11-21T08:17:52;100694.20;;;8.50
70831;BMP180;58451;51.550;7.208;2023-11-21T08:19:24;100705.20;;;8.50
70831;BMP180;58451;51.550;7.208;2023-11-21T08:20:57;100707.80;;;8.60
70831;BMP180;58451;51.550;7.208;2023-11-21T08:22:29;100705.40;;;8.60
70831;BMP180;58451;51.550;7.208;2023-11-21T08:26:16;100718.60;;;8.70
70831;BMP180;58451;51.550;7.208;2023-11-21T08:27:53;100720.20;;;8.70
70831;BMP180;58451;51.550;7.208;2023-11-21T08:29:25;100726.40;;;8.70
70831;BMP180;58451;51.550;7.208;2023-11-21T08:30:58;100730.20;;;8.70
70831;BMP180;58451;51.550;7.208;2023-11-21T08:32:33;100736.00;;;8.70
70831;BMP180;58451;51.550;7.208;2023-11-21T08:34:05;100738.40;;;8.70
70831;BMP180;58451;51.550;7.208;2023-11-21T08:35:37;100742.60;;;8.72
70831;BMP180;58451;51.550;7.208;2023-11-21T08:37:10;100743.00;;;8.80
70831;BMP180;58451;51.550;7.208;2023-11-21T08:38:42;100742.60;;;8.80
70831;BMP180;58451;51.550;7.208;2023-11-21T08:40:14;100751.00;;;8.80
70831;BMP180;58451;51.550;7.208;2023-11-21T08:41:49;100754.80;;;8.80
70831;BMP180;58451;51.550;7.208;2023-11-21T08:43:22;100753.80;;;8.80
70831;BMP180;58451;51.550;7.208;2023-11-21T08:44:54;100752.60;;;8.78
70831;BMP180;58451;51.550;7.208;2023-11-21T08:46:26;100755.60;;;8.70
70831;BMP180;58451;51.550;7.208;2023-11-21T08:47:58;100756.20;;;8.70
70831;BMP180;58451;51.550;7.208;2023-11-21T08:49:30;100753.80;;;8.70
70831;BMP180;58451;51.550;7.208;2023-11-21T08:51:04;100753.40;;;8.70
70831;BMP180;58451;51.550;7.208;2023-11-21T08:52:36;100753.40;;;8.80
70831;BMP180;58451;51.550;7.208;2023-11-21T08:54:09;100756.00;;;8.80
70831;BMP180;58451;51.550;7.208;2023-11-21T08:55:41;100754.00;;;8.82